createdAt,value
2018-10-12T00:02:22.524Z,18.40
2018-10-12T00:04:50.755Z,18.30
2018-10-12T00:07:19.014Z,18.30
2018-10-12T00:09:47.263Z,18.20
2018-10-12T00:12:15.514Z,18.20
2018-10-12T00:14:43.735Z,18.20
2018-10-12T00:17:11.947Z,18.10
2018-10-12T00:19:40.182Z,18.10
2018-10-12T00:22:08.519Z,18.10
2018-10-12T00:24:36.759Z,18.00
2018-10-12T00:27:05.006Z,18.00
2018-10-12T00:29:33.261Z,17.90
2018-10-12T00:32:01.489Z,17.90
2018-10-12T00:34:29.710Z,17.80
2018-10-12T00:36:57.923Z,17.80
2018-10-12T00:39:26.150Z,17.80
2018-10-12T00:41:54.337Z,17.70
2018-10-12T00:44:22.595Z,17.70
2018-10-12T00:46:50.866Z,17.60
2018-10-12T00:49:19.087Z,17.60
2018-10-12T00:51:47.334Z,17.50
2018-10-12T00:54:15.562Z,17.50
2018-10-12T00:56:43.768Z,17.50
2018-10-12T00:59:12.615Z,17.40
2018-10-12T01:01:40.854Z,17.40
2018-10-12T01:04:09.303Z,17.30
2018-10-12T01:06:37.563Z,17.40
2018-10-12T01:09:06.104Z,17.40
2018-10-12T01:11:34.337Z,17.30
2018-10-12T01:14:02.571Z,17.30
2018-10-12T01:16:30.803Z,17.30
2018-10-12T01:18:59.010Z,17.30
2018-10-12T01:21:27.270Z,17.30
2018-10-12T01:23:55.477Z,17.20
2018-10-12T01:26:23.758Z,17.20
2018-10-12T01:28:56.309Z,17.10
2018-10-12T01:31:25.487Z,17.10
2018-10-12T01:33:53.810Z,17.10
2018-10-12T01:36:22.227Z,17.10
2018-10-12T01:38:50.446Z,17.20
2018-10-12T01:41:18.662Z,17.20
2018-10-12T01:43:46.866Z,17.20
2018-10-12T01:46:15.146Z,17.10
2018-10-12T01:48:43.369Z,17.10
2018-10-12T01:51:11.575Z,17.20
2018-10-12T01:53:39.791Z,17.20
2018-10-12T01:56:07.988Z,17.10
2018-10-12T01:58:36.186Z,17.10
2018-10-12T02:01:04.431Z,17.10
2018-10-12T02:03:32.643Z,17.10
2018-10-12T02:06:00.867Z,17.00
2018-10-12T02:08:29.088Z,17.00
2018-10-12T02:10:57.307Z,16.90
2018-10-12T02:13:25.588Z,16.90
2018-10-12T02:15:53.798Z,17.00
2018-10-12T02:18:21.990Z,17.00
2018-10-12T02:20:50.207Z,16.90
2018-10-12T02:23:18.390Z,16.80
2018-10-12T02:25:46.618Z,16.80
2018-10-12T02:28:14.804Z,16.80
2018-10-12T02:30:43.028Z,16.80
2018-10-12T02:33:11.243Z,16.90
2018-10-12T02:35:39.440Z,16.80
2018-10-12T02:38:07.723Z,16.80
2018-10-12T02:40:35.939Z,16.90
2018-10-12T02:43:04.183Z,16.90
2018-10-12T02:45:32.410Z,17.00
2018-10-12T02:48:00.629Z,17.00
2018-10-12T02:50:28.834Z,17.00
2018-10-12T02:52:57.029Z,17.00
2018-10-12T02:55:25.290Z,17.00
2018-10-12T02:57:53.507Z,16.90
2018-10-12T03:00:21.814Z,16.90
2018-10-12T03:02:50.050Z,16.90
2018-10-12T03:05:18.264Z,16.90
2018-10-12T03:07:46.498Z,16.80
2018-10-12T03:10:14.734Z,16.80
2018-10-12T03:12:42.987Z,16.80
2018-10-12T03:15:11.230Z,16.80
2018-10-12T03:17:39.426Z,16.80
2018-10-12T03:20:07.646Z,16.70
2018-10-12T03:22:35.839Z,16.60
2018-10-12T03:25:04.062Z,16.60
2018-10-12T03:27:42.267Z,16.50
2018-10-12T03:30:10.499Z,16.50
2018-10-12T03:32:38.750Z,16.50
2018-10-12T03:35:07.014Z,16.40
2018-10-12T03:37:35.260Z,16.30
2018-10-12T03:40:03.443Z,16.30
2018-10-12T03:42:31.682Z,16.30
2018-10-12T03:44:59.910Z,16.20
2018-10-12T03:47:28.254Z,16.20
2018-10-12T03:49:56.523Z,16.20
2018-10-12T03:52:24.839Z,16.10
2018-10-12T03:54:53.074Z,16.10
2018-10-12T03:57:21.287Z,16.10
2018-10-12T03:59:49.503Z,16.10
2018-10-12T04:02:17.808Z,16.10
2018-10-12T04:04:46.286Z,16.10
2018-10-12T04:07:14.782Z,16.00
2018-10-12T04:09:43.011Z,16.00
2018-10-12T04:12:11.250Z,16.00
2018-10-12T04:14:39.490Z,16.00
2018-10-12T04:17:07.947Z,15.90
2018-10-12T04:19:36.228Z,15.90
2018-10-12T04:22:04.467Z,15.90
2018-10-12T04:24:32.798Z,15.90
2018-10-12T04:27:01.013Z,15.90
2018-10-12T04:29:29.216Z,15.90
2018-10-12T04:31:57.466Z,15.90
2018-10-12T04:34:25.814Z,15.90
2018-10-12T04:36:54.047Z,15.80
2018-10-12T04:39:38.619Z,15.80
2018-10-12T04:42:06.836Z,15.80
2018-10-12T04:44:35.042Z,15.80
2018-10-12T04:47:03.271Z,15.70
2018-10-12T04:49:31.474Z,15.70
2018-10-12T04:52:00.271Z,15.70
2018-10-12T04:54:28.859Z,15.70
2018-10-12T04:56:57.084Z,15.70
2018-10-12T04:59:25.409Z,15.70
2018-10-12T05:01:53.671Z,15.60
2018-10-12T05:04:21.871Z,15.60
2018-10-12T05:06:50.088Z,15.60
2018-10-12T05:09:18.320Z,15.60
2018-10-12T05:11:46.518Z,15.60
2018-10-12T05:14:14.866Z,15.60
2018-10-12T05:16:43.125Z,15.60
2018-10-12T05:19:11.358Z,15.50
2018-10-12T05:21:39.571Z,15.50
2018-10-12T05:24:07.858Z,15.50
2018-10-12T05:26:36.073Z,15.40
2018-10-12T05:29:04.402Z,15.50
2018-10-12T05:31:32.630Z,15.50
2018-10-12T05:34:00.873Z,15.50
2018-10-12T05:36:29.428Z,15.50
2018-10-12T05:38:57.664Z,15.50
2018-10-12T05:41:26.059Z,15.60
2018-10-12T05:43:54.367Z,15.60
2018-10-12T05:46:22.597Z,15.60
2018-10-12T05:49:02.402Z,15.70
2018-10-12T05:51:30.634Z,15.70
2018-10-12T05:53:58.882Z,15.70
2018-10-12T05:56:30.422Z,15.70
2018-10-12T05:58:59.054Z,15.70
2018-10-12T06:01:27.483Z,15.80
2018-10-12T06:03:55.622Z,15.80
2018-10-12T06:06:23.907Z,15.80
2018-10-12T06:08:52.127Z,15.80
2018-10-12T06:11:20.434Z,15.90
2018-10-12T06:13:48.595Z,15.90
2018-10-12T06:16:16.788Z,15.90
2018-10-12T06:18:45.018Z,15.90
2018-10-12T06:21:13.204Z,16.00
2018-10-12T06:23:41.463Z,16.00
2018-10-12T06:26:09.739Z,16.10
2018-10-12T06:28:38.007Z,16.10
2018-10-12T06:31:07.094Z,16.20
2018-10-12T06:33:35.441Z,16.20
2018-10-12T06:36:03.679Z,16.30
2018-10-12T06:38:31.902Z,16.30
2018-10-12T06:41:00.224Z,16.30
2018-10-12T06:43:28.346Z,16.40
2018-10-12T06:45:56.605Z,16.50
2018-10-12T06:48:24.876Z,16.50
2018-10-12T06:50:53.067Z,16.60
2018-10-12T06:53:21.312Z,16.60
2018-10-12T06:55:49.541Z,16.70
2018-10-12T06:58:17.766Z,16.70
2018-10-12T07:00:46.003Z,16.70
2018-10-12T07:03:14.242Z,16.80
2018-10-12T07:05:42.506Z,16.80
2018-10-12T07:08:10.702Z,16.80
2018-10-12T07:10:38.926Z,16.80
2018-10-12T07:13:07.483Z,16.90
2018-10-12T07:15:35.711Z,17.00
2018-10-12T07:18:03.912Z,17.10
2018-10-12T07:20:32.134Z,17.20
2018-10-12T07:23:00.353Z,17.30
2018-10-12T07:25:28.586Z,17.40
2018-10-12T07:27:56.779Z,17.50
2018-10-12T07:30:25.015Z,17.50
2018-10-12T07:32:53.206Z,17.60
2018-10-12T07:35:21.431Z,17.70
2018-10-12T07:37:49.632Z,17.80
2018-10-12T07:40:17.841Z,17.90
2018-10-12T07:42:46.087Z,18.00
2018-10-12T07:45:14.286Z,18.00
2018-10-12T07:47:42.559Z,18.10
2018-10-12T07:50:10.779Z,18.10
2018-10-12T07:52:38.994Z,18.20
2018-10-12T07:55:07.227Z,18.30
2018-10-12T07:57:35.471Z,18.40
2018-10-12T08:00:03.752Z,18.50
2018-10-12T08:02:31.989Z,18.60
2018-10-12T08:05:00.183Z,18.70
2018-10-12T08:07:28.414Z,18.80
2018-10-12T08:09:56.654Z,18.90
2018-10-12T08:12:25.023Z,19.00
2018-10-12T08:14:53.262Z,19.10
2018-10-12T08:17:21.467Z,19.10
2018-10-12T08:19:49.718Z,19.30
2018-10-12T08:22:17.938Z,19.40
2018-10-12T08:24:46.170Z,19.50
2018-10-12T08:27:14.395Z,19.50
2018-10-12T08:29:42.585Z,19.60
2018-10-12T08:32:10.826Z,19.80
2018-10-12T08:34:39.026Z,19.80
2018-10-12T08:37:07.288Z,19.90
2018-10-12T08:39:35.542Z,19.90
2018-10-12T08:42:03.743Z,20.00
2018-10-12T08:44:31.931Z,20.10
2018-10-12T08:47:00.134Z,20.20
2018-10-12T08:49:28.362Z,20.40
2018-10-12T08:51:56.551Z,20.40
2018-10-12T08:54:24.854Z,20.50
2018-10-12T08:56:53.078Z,20.70
2018-10-12T08:59:21.310Z,20.70
2018-10-12T09:01:49.582Z,20.70
2018-10-12T09:04:17.807Z,20.90
2018-10-12T09:06:46.034Z,20.90
2018-10-12T09:09:14.242Z,21.00
2018-10-12T09:11:42.455Z,21.10
2018-10-12T09:14:10.662Z,21.10
2018-10-12T09:16:38.867Z,21.20
2018-10-12T09:19:07.075Z,21.30
2018-10-12T09:21:35.322Z,21.40
2018-10-12T09:24:03.543Z,21.50
2018-10-12T09:26:31.822Z,21.50
2018-10-12T09:29:00.287Z,21.50
2018-10-12T09:31:28.522Z,21.50
2018-10-12T09:33:56.748Z,21.60
2018-10-12T09:36:25.086Z,21.70
2018-10-12T09:38:53.295Z,21.80
2018-10-12T09:41:21.532Z,21.90
2018-10-12T09:43:49.770Z,21.90
2018-10-12T09:46:17.986Z,22.00
2018-10-12T09:48:46.206Z,22.10
2018-10-12T09:51:14.418Z,22.20
2018-10-12T09:53:42.836Z,22.20
2018-10-12T09:56:11.042Z,22.20
2018-10-12T09:58:39.315Z,22.30
2018-10-12T10:02:15.193Z,22.40
2018-10-12T10:04:43.302Z,22.50
2018-10-12T10:07:11.505Z,22.60
2018-10-12T10:09:39.758Z,22.70
2018-10-12T10:12:08.058Z,22.60
2018-10-12T10:14:36.267Z,22.60
2018-10-12T10:17:04.478Z,22.70
2018-10-12T10:19:32.691Z,22.80
2018-10-12T10:22:00.925Z,22.90
2018-10-12T10:24:29.142Z,23.00
2018-10-12T10:26:57.358Z,23.10
2018-10-12T10:29:26.017Z,23.30
2018-10-12T10:31:53.994Z,23.40
2018-10-12T10:34:22.122Z,23.40
2018-10-12T10:36:50.342Z,23.50
2018-10-12T10:39:18.558Z,23.50
2018-10-12T10:41:46.770Z,23.50
2018-10-12T10:44:15.003Z,23.60
2018-10-12T10:46:43.259Z,23.60
2018-10-12T10:49:11.483Z,23.60
2018-10-12T10:51:39.732Z,23.60
2018-10-12T10:54:07.965Z,23.60
2018-10-12T10:56:36.170Z,23.60
2018-10-12T10:59:04.399Z,23.70
2018-10-12T11:01:32.582Z,23.90
2018-10-12T11:04:00.826Z,24.20
2018-10-12T11:06:29.121Z,24.50
2018-10-12T11:08:57.278Z,24.90
2018-10-12T11:11:25.582Z,25.10
2018-10-12T11:13:53.818Z,25.70
2018-10-12T11:16:22.036Z,26.30
2018-10-12T11:18:50.271Z,26.60
2018-10-12T11:21:18.486Z,26.60
2018-10-12T11:23:46.717Z,27.10
2018-10-12T11:26:15.007Z,27.40
2018-10-12T11:28:43.173Z,27.80
2018-10-12T11:31:11.421Z,28.10
2018-10-12T11:33:39.626Z,27.70
2018-10-12T11:36:07.854Z,27.90
2018-10-12T11:38:36.053Z,28.30
2018-10-12T11:41:04.308Z,27.70
2018-10-12T11:43:35.203Z,27.80
2018-10-12T11:46:03.446Z,28.20
2018-10-12T11:48:31.711Z,28.60
2018-10-12T11:51:00.350Z,29.00
2018-10-12T11:53:28.586Z,28.90
2018-10-12T11:55:56.794Z,29.00
2018-10-12T11:58:25.424Z,29.30
2018-10-12T12:00:53.710Z,29.40
2018-10-12T12:03:22.080Z,29.20
2018-10-12T12:05:50.287Z,29.40
2018-10-12T12:08:18.508Z,29.20
2018-10-12T12:10:46.747Z,29.50
2018-10-12T12:13:15.008Z,29.80
2018-10-12T12:15:43.174Z,30.00
2018-10-12T12:18:11.374Z,30.10
2018-10-12T12:20:39.563Z,30.10
2018-10-12T12:23:07.782Z,30.10
2018-10-12T12:25:35.997Z,30.20
2018-10-12T12:28:04.204Z,30.60
2018-10-12T12:30:32.406Z,30.80
2018-10-12T12:33:00.640Z,31.10
2018-10-12T12:35:29.079Z,31.00
2018-10-12T12:37:57.103Z,30.90
2018-10-12T12:40:25.490Z,30.60
2018-10-12T12:42:53.687Z,30.80
2018-10-12T12:45:22.126Z,31.10
2018-10-12T12:47:50.464Z,31.40
2018-10-12T12:50:18.559Z,31.40
2018-10-12T12:52:46.798Z,31.30
2018-10-12T12:55:14.987Z,31.00
2018-10-12T12:57:43.190Z,31.00
2018-10-12T13:00:11.435Z,31.00
2018-10-12T13:02:39.615Z,31.10
2018-10-12T13:05:07.887Z,31.30
2018-10-12T13:07:36.122Z,31.70
2018-10-12T13:10:04.368Z,32.10
2018-10-12T13:12:32.594Z,32.20
2018-10-12T13:15:00.786Z,32.60
2018-10-12T13:17:29.006Z,33.20
2018-10-12T13:19:57.258Z,32.80
2018-10-12T13:22:25.575Z,32.50
2018-10-12T13:24:53.798Z,32.10
2018-10-12T13:27:22.003Z,32.00
2018-10-12T13:29:50.226Z,31.60
2018-10-12T13:32:18.464Z,31.80
2018-10-12T13:34:46.694Z,32.20
2018-10-12T13:37:14.982Z,32.20
2018-10-12T13:39:43.265Z,32.00
2018-10-12T13:42:11.451Z,31.90
2018-10-12T13:44:39.690Z,31.60
2018-10-12T13:47:07.911Z,31.80
2018-10-12T13:49:36.187Z,31.70
2018-10-12T13:52:04.418Z,31.80
2018-10-12T13:54:32.627Z,32.10
2018-10-12T13:57:01.763Z,32.20
2018-10-12T13:59:31.046Z,32.60
2018-10-12T14:01:59.859Z,32.60
2018-10-12T14:04:28.857Z,33.10
2018-10-12T14:06:57.122Z,33.40
2018-10-12T14:09:26.683Z,33.50
2018-10-12T14:11:54.934Z,33.80
2018-10-12T14:14:23.142Z,34.00
2018-10-12T14:16:51.393Z,34.40
2018-10-12T14:19:19.973Z,34.50
2018-10-12T14:21:47.807Z,34.80
2018-10-12T14:24:16.018Z,35.10
2018-10-12T14:26:44.464Z,35.30
2018-10-12T14:29:12.920Z,35.30
2018-10-12T14:31:41.283Z,34.70
2018-10-12T14:34:09.515Z,34.20
2018-10-12T14:36:37.754Z,34.10
2018-10-12T14:39:07.759Z,33.80
2018-10-12T14:41:36.039Z,34.00
2018-10-12T14:44:04.489Z,34.40
2018-10-12T14:46:32.638Z,35.00
2018-10-12T14:49:00.903Z,35.20
2018-10-12T14:51:30.001Z,35.70
2018-10-12T14:53:58.127Z,35.90
2018-10-12T14:56:26.510Z,35.90
2018-10-12T14:58:54.786Z,35.90
2018-10-12T15:04:13.624Z,35.90
2018-10-12T15:06:41.897Z,35.80
2018-10-12T15:09:12.235Z,35.80
2018-10-12T15:11:40.607Z,35.80
2018-10-12T15:14:09.036Z,35.60
2018-10-12T15:16:37.291Z,35.40
2018-10-12T15:19:05.809Z,35.70
2018-10-12T15:21:34.084Z,35.50
2018-10-12T15:24:02.247Z,35.50
2018-10-12T15:26:30.507Z,35.50
2018-10-12T15:28:58.731Z,35.60
2018-10-12T15:31:26.945Z,35.40
2018-10-12T15:33:55.175Z,34.90
2018-10-12T15:36:23.418Z,34.80
2018-10-12T15:38:51.598Z,34.60
2018-10-12T15:41:19.779Z,34.40
2018-10-12T15:43:48.042Z,34.30
2018-10-12T15:46:16.280Z,34.20
2018-10-12T15:48:44.535Z,34.30
2018-10-12T15:51:12.814Z,34.00
2018-10-12T15:53:40.957Z,33.70
2018-10-12T15:56:09.239Z,33.50
2018-10-12T15:58:37.432Z,33.10
2018-10-12T16:01:05.682Z,32.70
2018-10-12T16:03:33.907Z,32.20
2018-10-12T16:06:02.105Z,31.40
2018-10-12T16:08:30.351Z,30.90
2018-10-12T16:10:58.570Z,30.80
2018-10-12T16:13:26.847Z,30.40
2018-10-12T16:15:55.078Z,29.90
2018-10-12T16:18:23.282Z,29.50
2018-10-12T16:20:51.482Z,29.10
2018-10-12T16:23:19.714Z,29.00
2018-10-12T16:26:03.715Z,28.80
2018-10-12T16:28:31.910Z,28.70
2018-10-12T16:31:00.250Z,28.60
2018-10-12T16:33:28.607Z,28.40
2018-10-12T16:35:57.986Z,28.20
2018-10-12T16:38:26.280Z,28.10
2018-10-12T16:40:54.512Z,28.00
2018-10-12T16:43:22.754Z,27.80
2018-10-12T16:45:51.670Z,27.60
2018-10-12T16:48:20.055Z,27.50
2018-10-12T16:50:48.314Z,27.40
2018-10-12T16:53:16.512Z,27.40
2018-10-12T16:55:44.706Z,27.40
2018-10-12T16:58:13.928Z,27.40
2018-10-12T17:00:42.331Z,27.30
2018-10-12T17:03:10.595Z,27.20
2018-10-12T17:05:38.979Z,27.10
2018-10-12T17:08:07.243Z,27.00
2018-10-12T17:10:35.996Z,27.00
2018-10-12T17:13:04.258Z,26.90
2018-10-12T17:15:32.487Z,26.90
2018-10-12T17:18:01.754Z,26.70
2018-10-12T17:20:29.979Z,26.70
2018-10-12T17:22:58.211Z,26.60
2018-10-12T17:25:26.518Z,26.50
2018-10-12T17:27:54.742Z,26.30
2018-10-12T17:30:23.216Z,26.20
2018-10-12T17:32:51.403Z,26.20
2018-10-12T17:35:19.745Z,26.10
2018-10-12T17:37:47.939Z,26.00
2018-10-12T17:40:16.158Z,25.80
2018-10-12T17:42:44.422Z,25.70
2018-10-12T17:45:12.650Z,25.60
2018-10-12T17:47:41.026Z,25.80
2018-10-12T17:50:09.374Z,25.70
2018-10-12T17:52:37.578Z,25.70
2018-10-12T17:55:06.127Z,25.70
2018-10-12T17:57:34.462Z,25.70
2018-10-12T18:00:02.772Z,25.80
2018-10-12T18:02:30.903Z,25.70
2018-10-12T18:04:59.114Z,25.60
2018-10-12T18:07:27.334Z,25.70
2018-10-12T18:09:55.568Z,25.60
2018-10-12T18:12:23.821Z,25.60
2018-10-12T18:14:52.012Z,25.50
2018-10-12T18:17:20.246Z,25.40
2018-10-12T18:19:48.545Z,25.40
2018-10-12T18:22:16.694Z,25.30
2018-10-12T18:24:44.916Z,25.20
2018-10-12T18:27:13.148Z,25.20
2018-10-12T18:29:41.346Z,25.10
2018-10-12T18:32:09.557Z,25.20
2018-10-12T18:34:38.487Z,25.10
2018-10-12T18:37:06.708Z,25.10
2018-10-12T18:39:34.961Z,25.00
2018-10-12T18:42:03.178Z,24.90
2018-10-12T18:44:31.402Z,24.80
2018-10-12T18:46:59.679Z,24.80
2018-10-12T18:49:27.883Z,24.70
2018-10-12T18:51:56.239Z,24.70
2018-10-12T18:54:24.533Z,24.50
2018-10-12T18:56:52.734Z,24.30
2018-10-12T18:59:21.028Z,24.30
2018-10-12T19:01:49.228Z,24.20
2018-10-12T19:04:17.433Z,24.10
2018-10-12T19:06:45.717Z,24.10
2018-10-12T19:09:13.888Z,24.10
2018-10-12T19:11:42.105Z,24.00
2018-10-12T19:14:10.446Z,23.90
2018-10-12T19:16:38.674Z,23.90
2018-10-12T19:19:07.334Z,23.90
2018-10-12T19:21:35.534Z,23.80
2018-10-12T19:24:03.843Z,23.80
2018-10-12T19:26:32.019Z,23.90
2018-10-12T19:29:00.254Z,23.80
2018-10-12T19:31:28.513Z,23.80
2018-10-12T19:33:56.710Z,23.70
2018-10-12T19:36:25.123Z,23.70
2018-10-12T19:38:53.342Z,23.70
2018-10-12T19:41:21.543Z,23.70
2018-10-12T19:43:49.746Z,23.70
2018-10-12T19:46:17.987Z,23.70
2018-10-12T19:48:46.194Z,23.70
2018-10-12T19:51:14.398Z,23.70
2018-10-12T19:53:42.646Z,23.70
2018-10-12T19:56:11.118Z,23.70
2018-10-12T19:58:39.722Z,23.60
2018-10-12T20:01:08.228Z,23.60
2018-10-12T20:03:36.583Z,23.70
2018-10-12T20:06:04.806Z,23.70
2018-10-12T20:08:33.006Z,23.70
2018-10-12T20:11:01.224Z,23.80
2018-10-12T20:13:29.422Z,23.80
2018-10-12T20:15:57.638Z,23.80
2018-10-12T20:18:26.017Z,23.70
2018-10-12T20:20:54.250Z,23.70
2018-10-12T20:23:22.468Z,23.70
2018-10-12T20:25:50.687Z,23.70
2018-10-12T20:28:18.923Z,23.60
2018-10-12T20:30:47.167Z,23.60
2018-10-12T20:33:15.342Z,23.50
2018-10-12T20:35:43.566Z,23.50
2018-10-12T20:38:11.810Z,23.50
2018-10-12T20:40:40.042Z,23.50
2018-10-12T20:43:08.281Z,23.30
2018-10-12T20:45:36.532Z,23.10
2018-10-12T20:48:04.755Z,23.20
2018-10-12T20:50:33.134Z,23.10
2018-10-12T20:53:01.294Z,23.00
2018-10-12T20:55:29.490Z,23.00
2018-10-12T20:57:57.955Z,23.00
2018-10-12T21:00:26.258Z,22.90
2018-10-12T21:02:54.454Z,22.90
2018-10-12T21:05:22.683Z,22.90
2018-10-12T21:07:50.906Z,22.70
2018-10-12T21:10:19.123Z,22.60
2018-10-12T21:12:47.371Z,22.60
2018-10-12T21:15:15.650Z,22.60
2018-10-12T21:17:43.921Z,22.60
2018-10-12T21:20:12.066Z,22.60
2018-10-12T21:22:40.334Z,22.60
2018-10-12T21:25:08.702Z,22.60
2018-10-12T21:27:36.943Z,22.60
2018-10-12T21:30:05.218Z,22.70
2018-10-12T21:32:33.534Z,22.60
2018-10-12T21:35:01.747Z,22.60
2018-10-12T21:37:29.966Z,22.60
2018-10-12T21:39:58.174Z,22.50
2018-10-12T21:42:26.414Z,22.50
2018-10-12T21:44:54.667Z,22.50
2018-10-12T21:47:22.891Z,22.50
2018-10-12T21:49:51.103Z,22.50
2018-10-12T21:52:19.366Z,22.40
2018-10-12T21:54:47.615Z,22.40
2018-10-12T21:57:15.830Z,22.40
2018-10-12T21:59:44.079Z,22.40
2018-10-12T22:02:12.328Z,22.40
2018-10-12T22:04:40.534Z,22.50
2018-10-12T22:07:08.786Z,22.40
2018-10-12T22:09:36.966Z,22.40
2018-10-12T22:12:05.307Z,22.40
2018-10-12T22:14:33.591Z,22.40
2018-10-12T22:17:01.851Z,22.40
2018-10-12T22:19:30.078Z,22.40
2018-10-12T22:21:58.375Z,22.40
2018-10-12T22:24:26.819Z,22.30
2018-10-12T22:26:55.079Z,22.20
2018-10-12T22:29:23.338Z,22.20
2018-10-12T22:31:51.662Z,22.10
2018-10-12T22:34:19.893Z,22.00
2018-10-12T22:36:48.074Z,22.00
2018-10-12T22:39:16.302Z,22.00
2018-10-12T22:41:44.520Z,21.90
2018-10-12T22:44:12.731Z,21.80
2018-10-12T22:46:40.950Z,21.80
2018-10-12T22:49:09.175Z,21.80
2018-10-12T22:51:37.403Z,21.70
2018-10-12T22:54:05.775Z,21.70
2018-10-12T22:56:33.966Z,21.70
2018-10-12T22:59:02.191Z,21.70
2018-10-12T23:01:30.403Z,21.70
2018-10-12T23:03:58.627Z,21.60
2018-10-12T23:06:26.883Z,21.60
2018-10-12T23:08:55.097Z,21.50
2018-10-12T23:11:23.295Z,21.50
2018-10-12T23:13:51.526Z,21.30
2018-10-12T23:16:19.771Z,21.20
2018-10-12T23:18:48.054Z,21.20
2018-10-12T23:21:16.174Z,21.20
2018-10-12T23:23:44.363Z,21.20
2018-10-12T23:26:12.710Z,21.10
2018-10-12T23:28:40.965Z,21.20
2018-10-12T23:31:09.202Z,21.20
2018-10-12T23:33:49.247Z,21.20
2018-10-12T23:36:17.506Z,21.10
2018-10-12T23:38:45.726Z,21.00
2018-10-12T23:41:13.954Z,21.00
2018-10-12T23:43:42.209Z,21.00
2018-10-12T23:46:10.492Z,21.00
2018-10-12T23:48:38.706Z,21.00
2018-10-12T23:51:06.966Z,21.00
2018-10-12T23:53:35.178Z,20.90
2018-10-12T23:56:03.467Z,20.90
2018-10-12T23:58:31.623Z,20.80
